Time;durP1;ratioP1;P1;durP2;ratioP2;P2;SDS_P1;SDS_P2;PMS_P1;PMS_P2;Temp;Humidity;BMP_temperature;BMP_pressure;BME280_temperature;BME280_humidity;BME280_pressure;Samples;Min_cycle;Max_cycle;Signal;HPM_P1;HPM_P2
2023/06/16 00:01:15;;;;;;;4.13;3.80;;;19.50;99.90;;;;;;6041761;23;20030;-91
2023/06/16 00:03:43;;;;;;;5.30;3.60;;;19.60;99.90;;;;;;6050498;23;20006;-92
2023/06/16 00:06:16;;;;;;;4.60;3.22;;;19.60;99.90;;;;;;6050222;23;20006;-91
2023/06/16 00:08:47;;;;;;;3.72;3.53;;;19.60;99.90;;;;;;6074530;23;20011;-92
2023/06/16 00:11:18;;;;;;;3.10;3.00;;;19.60;99.90;;;;;;6050967;23;20014;-91
2023/06/16 00:13:45;;;;;;;4.05;3.30;;;19.70;99.90;;;;;;6050140;23;20454;-92
2023/06/16 00:16:14;;;;;;;3.50;3.20;;;19.70;99.90;;;;;;6050080;23;20010;-93
2023/06/16 00:18:43;;;;;;;3.88;3.30;;;19.70;99.90;;;;;;6050207;23;20013;-93
2023/06/16 00:21:13;;;;;;;3.35;3.10;;;19.70;99.90;;;;;;6050294;23;20035;-92
2023/06/16 00:23:40;;;;;;;5.93;3.60;;;19.70;99.90;;;;;;6050973;23;20006;-92
2023/06/16 00:26:07;;;;;;;3.20;3.00;;;19.70;99.90;;;;;;6049967;23;20085;-92
2023/06/16 00:28:41;;;;;;;3.25;3.05;;;19.70;99.90;;;;;;6050860;23;20007;-93
2023/06/16 00:31:10;;;;;;;4.03;3.63;;;19.70;99.90;;;;;;6051120;23;20010;-92
2023/06/16 00:33:37;;;;;;;3.40;3.10;;;19.70;99.90;;;;;;6063267;23;20026;-92
2023/06/16 00:36:04;;;;;;;2.88;2.78;;;19.70;99.90;;;;;;6078860;23;20005;-92
2023/06/16 00:38:44;;;;;;;2.85;2.70;;;19.70;99.90;;;;;;6078650;23;20089;-92
2023/06/16 00:41:13;;;;;;;5.05;3.00;;;19.60;99.90;;;;;;6078696;23;20022;-93
2023/06/16 00:43:49;;;;;;;2.85;2.65;;;19.60;99.90;;;;;;6079095;23;20030;-91
2023/06/16 00:46:48;;;;;;;6.20;2.80;;;19.60;99.90;;;;;;6078607;23;20006;-92
2023/06/16 00:49:18;;;;;;;3.05;2.50;;;19.60;99.90;;;;;;5982976;24;20012;-90
2023/06/16 00:51:53;;;;;;;5.50;2.80;;;19.70;99.90;;;;;;5982826;24;20100;-92
2023/06/16 00:54:23;;;;;;;2.70;2.50;;;19.70;99.90;;;;;;5983252;24;20016;-93
2023/06/16 00:56:58;;;;;;;4.13;2.70;;;19.70;99.90;;;;;;5982475;23;20087;-92
2023/06/16 00:59:27;;;;;;;2.40;2.30;;;19.70;99.90;;;;;;5982405;24;20038;-91
2023/06/16 01:01:57;;;;;;;3.20;2.90;;;19.70;99.90;;;;;;5982671;23;20020;-92
2023/06/16 01:04:25;;;;;;;3.75;2.75;;;19.70;99.90;;;;;;5982951;24;20018;-92
2023/06/16 01:07:20;;;;;;;3.03;2.38;;;19.70;99.90;;;;;;5982989;24;20008;-92
2023/06/16 01:10:27;;;;;;;2.65;2.45;;;19.80;99.90;;;;;;5982915;24;20091;-92
2023/06/16 01:13:24;;;;;;;3.05;2.30;;;19.80;99.90;;;;;;5962378;24;20525;-91
2023/06/16 01:15:55;;;;;;;2.58;2.38;;;19.80;99.90;;;;;;5982049;23;20012;-93
2023/06/16 01:18:36;;;;;;;2.55;2.35;;;19.90;99.90;;;;;;6002932;23;20014;-92
2023/06/16 01:21:24;;;;;;;2.30;2.10;;;19.90;99.90;;;;;;6078475;23;20100;-91
2023/06/16 01:24:18;;;;;;;2.63;2.42;;;19.90;99.90;;;;;;6078736;23;20010;-92
2023/06/16 01:26:53;;;;;;;2.30;2.20;;;19.90;99.90;;;;;;6079306;23;20014;-93
2023/06/16 01:29:25;;;;;;;2.55;2.10;;;19.90;99.90;;;;;;6078652;23;20084;-92
2023/06/16 01:31:59;;;;;;;4.10;2.60;;;19.90;99.90;;;;;;6078304;23;20061;-93
2023/06/16 01:34:31;;;;;;;3.40;2.65;;;19.90;99.90;;;;;;6078664;23;20072;-92
2023/06/16 01:37:04;;;;;;;2.97;2.17;;;19.90;99.90;;;;;;6079258;23;20041;-92
2023/06/16 01:39:32;;;;;;;4.25;3.20;;;19.90;99.90;;;;;;6078396;23;20273;-92
2023/06/16 01:42:04;;;;;;;3.00;2.72;;;19.90;99.90;;;;;;6079691;23;20424;-91
2023/06/16 01:44:33;;;;;;;4.10;2.28;;;19.90;99.90;;;;;;6080665;23;20048;-91
2023/06/16 01:47:11;;;;;;;5.03;2.50;;;19.80;99.90;;;;;;6080403;23;20101;-91
2023/06/16 01:49:49;;;;;;;4.75;2.88;;;19.80;99.90;;;;;;6081063;23;20056;-92
2023/06/16 01:52:21;;;;;;;5.10;2.35;;;19.80;99.90;;;;;;6080758;23;20018;-92
2023/06/16 01:54:59;;;;;;;4.00;2.60;;;19.70;99.90;;;;;;6080517;23;20079;-92
2023/06/16 01:57:30;;;;;;;4.05;2.30;;;19.70;99.90;;;;;;6081002;23;20010;-90
2023/06/16 02:00:14;;;;;;;4.72;2.88;;;19.70;99.90;;;;;;6081248;23;20014;-92
2023/06/16 02:03:08;;;;;;;2.83;2.38;;;19.70;99.90;;;;;;6080901;23;20009;-92
2023/06/16 02:05:46;;;;;;;3.97;2.63;;;19.70;99.90;;;;;;6080997;23;20041;-92
2023/06/16 02:08:24;;;;;;;2.65;2.45;;;19.70;99.90;;;;;;6080104;23;20487;-93
2023/06/16 02:10:57;;;;;;;7.13;2.80;;;19.60;99.90;;;;;;6080468;23;20010;-91
2023/06/16 02:13:42;;;;;;;2.22;1.92;;;19.60;99.90;;;;;;6081892;23;20415;-92
2023/06/16 02:16:24;;;;;;;4.43;2.90;;;19.50;99.90;;;;;;6081908;23;20013;-92
2023/06/16 02:18:53;;;;;;;5.53;2.83;;;19.50;99.90;;;;;;6080199;23;20010;-92
2023/06/16 02:21:26;;;;;;;4.70;2.22;;;19.50;99.90;;;;;;6080331;23;20017;-91
2023/06/16 02:23:58;;;;;;;2.45;2.25;;;19.50;99.90;;;;;;6080716;23;20026;-93
2023/06/16 02:26:25;;;;;;;2.13;2.03;;;19.50;99.90;;;;;;6079932;23;20014;-91
2023/06/16 02:29:00;;;;;;;2.42;2.00;;;19.50;99.90;;;;;;6079171;23;20002;-92
2023/06/16 02:31:38;;;;;;;2.05;1.88;;;19.50;99.90;;;;;;6080776;23;20065;-92
2023/06/16 02:34:08;;;;;;;3.00;1.80;;;19.50;99.90;;;;;;6074639;23;20019;-91
2023/06/16 02:36:47;;;;;;;1.90;1.80;;;19.50;99.90;;;;;;6077616;23;20014;-92
2023/06/16 02:39:29;;;;;;;4.47;2.20;;;19.50;99.90;;;;;;6075816;23;20006;-92
2023/06/16 02:42:14;;;;;;;2.50;1.80;;;19.50;99.90;;;;;;6075711;23;20018;-91
2023/06/16 02:44:40;;;;;;;3.92;1.98;;;19.50;99.90;;;;;;6075985;23;20010;-91
2023/06/16 02:47:15;;;;;;;3.78;1.98;;;19.40;99.90;;;;;;6075106;23;20010;-91
2023/06/16 02:49:56;;;;;;;4.03;2.15;;;19.40;99.90;;;;;;6075494;23;20014;-93
2023/06/16 02:52:36;;;;;;;3.00;1.92;;;19.40;99.90;;;;;;6076121;23;20062;-91
2023/06/16 02:55:08;;;;;;;3.35;1.67;;;19.40;99.90;;;;;;6075467;23;20340;-91
2023/06/16 02:57:42;;;;;;;7.50;2.08;;;19.40;99.90;;;;;;6075862;23;20014;-92
2023/06/16 03:00:12;;;;;;;4.30;1.88;;;19.30;99.90;;;;;;6074804;23;20014;-91
2023/06/16 03:03:07;;;;;;;2.00;1.77;;;19.30;99.90;;;;;;6098553;23;20097;-93
2023/06/16 03:05:38;;;;;;;5.05;2.38;;;19.20;99.90;;;;;;6075266;23;20010;-92
2023/06/16 03:08:09;;;;;;;2.70;1.88;;;19.20;99.90;;;;;;6070262;23;20010;-91
2023/06/16 03:38:38;;;;;;;4.67;3.80;;;18.90;99.90;;;;;;6044952;23;20067;31
2023/06/16 03:44:08;;;;;;;4.85;3.65;;;18.90;99.90;;;;;;6027017;23;20021;-92
2023/06/16 03:50:27;;;;;;;8.77;4.68;;;18.90;99.90;;;;;;6101577;23;20078;-92
2023/06/16 03:53:53;;;;;;;7.10;4.60;;;19.00;99.90;;;;;;6070476;23;20058;-92
2023/06/16 03:56:23;;;;;;;8.13;4.72;;;19.10;99.90;;;;;;6083657;23;20014;-92
2023/06/16 04:05:23;;;;;;;9.93;4.57;;;19.20;99.90;;;;;;5927451;24;20036;-92
2023/06/16 04:08:35;;;;;;;6.68;5.03;;;19.30;99.90;;;;;;5927912;24;20024;-92
2023/06/16 04:11:52;;;;;;;5.47;4.93;;;19.50;99.90;;;;;;5804982;24;20438;-91
2023/06/16 04:15:33;;;;;;;;;;;;;;;;;;;;;
2023/06/16 04:18:32;;;;;;;;;;;;;;;;;;;;;
2023/06/16 04:21:54;;;;;;;;;;;;;;;;;;;;;
2023/06/16 04:25:08;;;;;;;5.57;5.18;;;19.90;99.90;;;;;;5665376;25;20022;-91
2023/06/16 04:28:11;;;;;;;;;;;;;;;;;;;;;
2023/06/16 04:35:10;;;;;;;7.05;6.45;;;19.90;99.90;;;;;;5542269;25;20087;-92
2023/06/16 05:29:09;;;;;;;;;;;;;;;;;;;;;
2023/06/16 05:32:48;;;;;;;16.10;15.00;;;24.30;99.90;;;;;;5964672;24;20016;-93
2023/06/16 05:36:23;;;;;;;;;;;;;;;;;;;;;
2023/06/16 05:47:52;;;;;;;;;;;;;;;;;;;;;
2023/06/16 05:51:52;;;;;;;;;;;;;;;;;;;;;
2023/06/16 06:03:28;;;;;;;15.50;14.50;;;23.20;99.90;;;;;;5766010;24;20023;-93
2023/06/16 07:06:21;;;;;;;4.68;4.35;;;21.00;99.90;;;;;;6235164;22;20038;-91
2023/06/16 07:09:13;;;;;;;4.93;4.63;;;21.10;99.90;;;;;;6233608;22;20004;-95
2023/06/16 21:26:36;;;;;;;;;;;;;;;;;;;;;
2023/06/16 21:35:11;;;;;;;8.68;6.30;;;19.40;99.90;;;;;;6096287;23;20022;-91
2023/06/16 21:37:40;;;;;;;7.15;5.30;;;19.40;99.90;;;;;;6038775;23;20011;-93
2023/06/16 21:40:07;;;;;;;6.07;4.95;;;19.40;99.90;;;;;;6038467;23;20018;-91
2023/06/16 21:43:02;;;;;;;7.53;6.25;;;19.40;99.90;;;;;;6038298;23;20019;-91
2023/06/16 21:45:31;;;;;;;10.93;5.65;;;19.40;99.90;;;;;;6038834;23;20035;-92
2023/06/16 21:47:58;;;;;;;9.48;5.70;;;19.40;99.90;;;;;;6038678;23;20007;-92
2023/06/16 21:50:30;;;;;;;11.43;5.38;;;19.40;99.90;;;;;;6038423;23;20007;-92
2023/06/16 21:52:57;;;;;;;9.45;5.82;;;19.40;99.90;;;;;;6038467;23;20015;-91
2023/06/16 21:55:24;;;;;;;7.88;5.53;;;19.40;99.90;;;;;;6039419;23;20465;-91
2023/06/16 21:57:54;;;;;;;8.18;5.07;;;19.50;99.90;;;;;;6040676;23;20007;-91
2023/06/16 22:00:31;;;;;;;11.68;5.60;;;19.50;99.90;;;;;;6040017;23;20484;-92
2023/06/16 22:03:23;;;;;;;7.90;5.43;;;19.50;99.90;;;;;;6002863;23;20107;-92
2023/06/16 22:05:50;;;;;;;9.48;5.50;;;19.50;99.90;;;;;;5983739;23;20469;-92
2023/06/16 22:09:02;;;;;;;8.88;5.90;;;19.50;99.90;;;;;;5984715;23;20065;-95
2023/06/16 22:11:32;;;;;;;;;;;19.50;99.90;;;;;;5946983;24;20327;-90
2023/06/16 22:13:59;;;;;;;8.38;6.22;;;19.60;99.90;;;;;;5990821;23;19967;-93
2023/06/16 22:16:28;;;;;;;11.02;6.38;;;19.50;99.90;;;;;;6012265;23;20007;-91
2023/06/16 22:19:09;;;;;;;8.70;6.03;;;19.50;99.90;;;;;;6012040;23;20037;-90
2023/06/16 22:25:33;;;;;;;8.60;5.80;;;19.40;99.90;;;;;;6013005;23;20150;-91
2023/06/16 22:28:32;;;;;;;7.95;6.13;;;19.40;99.90;;;;;;6012162;23;20020;-91
2023/06/16 22:32:18;;;;;;;9.27;6.65;;;19.40;99.90;;;;;;6001789;23;20068;-91
2023/06/16 22:35:43;;;;;;;7.47;6.55;;;19.40;99.90;;;;;;5848149;24;20105;-91
2023/06/16 22:41:58;;;;;;;8.35;5.97;;;19.30;99.90;;;;;;5732132;25;20043;-91
2023/06/16 22:44:25;;;;;;;6.50;5.82;;;19.20;99.90;;;;;;5742079;25;20519;-92
2023/06/16 22:49:52;;;;;;;13.55;7.30;;;19.20;99.90;;;;;;6279438;22;20105;-91
2023/06/16 22:52:19;;;;;;;9.18;6.47;;;19.10;99.90;;;;;;6248150;22;20050;-92
2023/06/16 22:54:54;;;;;;;7.65;6.75;;;19.10;99.90;;;;;;6254755;22;20015;-93
2023/06/16 22:57:21;;;;;;;13.25;7.50;;;19.00;99.90;;;;;;6252359;22;20011;-89
2023/06/16 23:04:31;;;;;;;7.50;6.70;;;19.00;99.90;;;;;;6161231;22;20047;-93
2023/06/16 23:07:12;;;;;;;12.52;7.00;;;19.00;99.90;;;;;;6281410;22;20358;-91
2023/06/16 23:13:16;;;;;;;;;;;;;;;;;;;;;
2023/06/16 23:16:09;;;;;;;;;;;;;;;;;;;;;
2023/06/16 23:18:51;;;;;;;10.30;6.68;;;18.90;99.90;;;;;;6133892;23;20009;-93
2023/06/16 23:21:49;;;;;;;13.68;6.70;;;18.80;99.90;;;;;;6137058;23;20171;-92
2023/06/16 23:24:18;;;;;;;10.43;6.47;;;18.80;99.90;;;;;;6110900;23;20366;-94
2023/06/16 23:26:45;;;;;;;13.98;6.10;;;18.80;99.90;;;;;;6134574;23;20016;-94
2023/06/16 23:29:33;;;;;;;8.75;5.70;;;18.80;99.90;;;;;;6136137;23;20005;-93
2023/06/16 23:32:09;;;;;;;11.63;6.35;;;18.80;99.90;;;;;;6133247;23;20052;-93
2023/06/16 23:34:39;;;;;;;14.38;6.43;;;18.80;99.90;;;;;;6135786;23;20443;-94
2023/06/16 23:37:08;;;;;;;12.82;6.28;;;18.80;99.90;;;;;;6136396;23;20415;-93
2023/06/16 23:39:35;;;;;;;9.50;6.18;;;18.80;99.90;;;;;;6136745;23;20041;-91
2023/06/16 23:42:08;;;;;;;10.57;5.75;;;18.80;99.90;;;;;;6131069;23;20012;-94
2023/06/16 23:44:37;;;;;;;16.42;6.57;;;18.80;99.90;;;;;;6132161;23;20006;-92
2023/06/16 23:47:16;;;;;;;7.85;6.13;;;18.80;99.90;;;;;;6131651;23;20009;-92
2023/06/16 23:49:46;;;;;;;14.43;5.85;;;18.80;99.90;;;;;;6131345;23;20009;-92
2023/06/16 23:52:14;;;;;;;13.85;6.00;;;18.80;99.90;;;;;;6187911;22;20003;-93
2023/06/16 23:54:43;;;;;;;14.55;5.47;;;18.80;99.90;;;;;;6227347;22;20003;-92
2023/06/16 23:57:10;;;;;;;13.98;6.88;;;18.80;99.90;;;;;;6226842;22;20011;-93
2023/06/16 23:59:36;;;;;;;9.15;5.20;;;18.80;99.90;;;;;;6226430;22;20015;-93
